Time;durP1;ratioP1;P1;durP2;ratioP2;P2;SDS_P1;SDS_P2;PMS_P1;PMS_P2;Temp;Humidity;BMP_temperature;BMP_pressure;BME280_temperature;BME280_humidity;BME280_pressure;Samples;Min_cycle;Max_cycle;Signal;HPM_P1;HPM_P2
2023/12/16 06:03:57;;;;;;;15.87;9.77;;;;;;;;;;4980911;28;20495;-71
2023/12/16 06:06:23;;;;;;;17.10;8.70;;;;;;;;;;4989100;28;20408;-74
2023/12/16 06:08:50;;;;;;;13.73;8.30;;;;;;;;;;4994501;28;20407;-73
2023/12/16 06:11:16;;;;;;;15.90;8.43;;;;;;;;;;4994494;28;20439;-75
2023/12/16 06:13:42;;;;;;;13.80;8.50;;;;;;;;;;4992509;28;20483;-73
2023/12/16 06:16:08;;;;;;;16.93;8.40;;;;;;;;;;4990691;28;20419;-72
2023/12/16 06:18:34;;;;;;;18.77;9.20;;;;;;;;;;4985405;28;20471;-73
2023/12/16 06:21:00;;;;;;;13.83;8.03;;;;;;;;;;4983755;28;20455;-71
2023/12/16 06:23:30;;;;;;;13.57;8.80;;;;;;;;;;4982771;28;20419;-71
2023/12/16 06:25:56;;;;;;;13.40;8.90;;;;;;;;;;4980155;28;20412;-73
2023/12/16 06:28:22;;;;;;;14.00;7.83;;;;;;;;;;4978415;28;20418;-70
2023/12/16 06:30:48;;;;;;;18.27;9.07;;;;;;;;;;4976231;28;20431;-71
2023/12/16 06:33:14;;;;;;;10.67;7.70;;;;;;;;;;4976189;28;20502;-70
2023/12/16 06:35:40;;;;;;;14.80;8.37;;;;;;;;;;4975944;28;20463;-73
2023/12/16 06:38:06;;;;;;;18.10;9.27;;;;;;;;;;4977262;28;20412;-71
2023/12/16 06:40:32;;;;;;;12.83;7.60;;;;;;;;;;4976741;28;20510;-71
2023/12/16 06:42:58;;;;;;;16.23;9.13;;;;;;;;;;4976772;28;20412;-70
2023/12/16 06:45:24;;;;;;;15.20;7.67;;;;;;;;;;4976554;28;20466;-71
2023/12/16 06:47:50;;;;;;;12.83;8.47;;;;;;;;;;4977361;28;20419;-72
2023/12/16 06:50:16;;;;;;;12.40;8.10;;;;;;;;;;4975381;28;20466;-73
2023/12/16 06:52:42;;;;;;;13.80;8.93;;;;;;;;;;4958180;28;20515;-73
2023/12/16 06:55:09;;;;;;;14.37;8.40;;;;;;;;;;4975442;28;20438;-71
2023/12/16 06:57:35;;;;;;;14.73;7.80;;;;;;;;;;4975492;28;20408;-70
2023/12/16 07:00:01;;;;;;;15.20;8.03;;;;;;;;;;4975608;28;20423;-71
2023/12/16 07:02:27;;;;;;;12.00;7.23;;;;;;;;;;4975615;28;20451;-71
2023/12/16 07:04:53;;;;;;;12.03;7.23;;;;;;;;;;4975636;28;20426;-71
2023/12/16 07:07:19;;;;;;;12.20;7.90;;;;;;;;;;4975963;28;20412;-72
2023/12/16 07:09:45;;;;;;;14.93;8.60;;;;;;;;;;4974811;28;20408;-73
2023/12/16 07:12:10;;;;;;;10.67;6.80;;;;;;;;;;4974966;28;20570;-73
2023/12/16 07:14:38;;;;;;;17.33;6.70;;;;;;;;;;4975540;28;20414;-71
2023/12/16 07:17:04;;;;;;;15.23;7.13;;;;;;;;;;4958092;28;20448;-70
2023/12/16 07:19:31;;;;;;;16.00;7.70;;;;;;;;;;4975229;28;20419;-71
2023/12/16 07:21:57;;;;;;;18.47;8.90;;;;;;;;;;4975190;28;20451;-72
2023/12/16 07:24:23;;;;;;;13.40;7.60;;;;;;;;;;4975181;28;20404;-71
2023/12/16 07:26:49;;;;;;;14.23;7.77;;;;;;;;;;4974630;28;20415;-72
2023/12/16 07:29:16;;;;;;;14.80;8.20;;;;;;;;;;4957574;28;20456;-71
2023/12/16 07:31:46;;;;;;;17.13;8.37;;;;;;;;;;4974300;28;20483;-71
2023/12/16 07:34:12;;;;;;;11.07;8.17;;;;;;;;;;4975141;28;20831;-72
2023/12/16 07:36:38;;;;;;;20.20;8.80;;;;;;;;;;4974878;28;20415;-71
2023/12/16 07:39:04;;;;;;;17.23;8.67;;;;;;;;;;4974609;28;20412;-71
2023/12/16 07:41:30;;;;;;;15.77;7.80;;;;;;;;;;4974688;28;20432;-71
2023/12/16 07:43:56;;;;;;;13.03;7.37;;;;;;;;;;4974335;28;20412;-72
2023/12/16 07:46:22;;;;;;;14.10;8.07;;;;;;;;;;4974958;28;20911;-70
2023/12/16 07:48:48;;;;;;;14.50;8.27;;;;;;;;;;4957179;28;20430;-70
2023/12/16 07:51:15;;;;;;;15.60;7.70;;;;;;;;;;4974125;28;20811;-70
2023/12/16 07:53:43;;;;;;;13.57;8.13;;;;;;;;;;4956841;28;20463;-71
2023/12/16 07:56:15;;;;;;;13.00;8.00;;;;;;;;;;4974518;28;20977;-72
2023/12/16 07:58:41;;;;;;;11.90;7.40;;;;;;;;;;4974476;28;20397;-73
2023/12/16 08:01:07;;;;;;;15.83;8.37;;;;;;;;;;4956805;28;20476;-72
2023/12/16 08:03:33;;;;;;;11.83;6.87;;;;;;;;;;4974276;28;20431;-71
2023/12/16 08:05:59;;;;;;;12.33;8.10;;;;;;;;;;4974326;28;21021;-72
2023/12/16 08:08:24;;;;;;;12.63;7.57;;;;;;;;;;4979186;28;20419;-71
2023/12/16 08:10:53;;;;;;;11.97;7.83;;;;;;;;;;4979727;28;20435;-71
2023/12/16 08:13:19;;;;;;;11.87;7.50;;;;;;;;;;4961474;28;20495;-71
2023/12/16 08:15:45;;;;;;;11.43;6.40;;;;;;;;;;4978913;28;20784;-73
2023/12/16 08:18:12;;;;;;;12.50;7.03;;;;;;;;;;4975026;28;20474;-72
2023/12/16 08:20:38;;;;;;;17.10;7.40;;;;;;;;;;4973797;28;20440;-72
2023/12/16 08:23:08;;;;;;;11.67;6.53;;;;;;;;;;4956425;28;20416;-72
2023/12/16 08:25:35;;;;;;;10.80;6.87;;;;;;;;;;4957124;28;20431;-73
2023/12/16 08:28:01;;;;;;;13.03;7.80;;;;;;;;;;4974216;28;20423;-70
2023/12/16 08:30:27;;;;;;;13.10;7.90;;;;;;;;;;4973686;28;20459;-72
2023/12/16 08:32:53;;;;;;;17.63;8.23;;;;;;;;;;4973846;28;20869;-72
2023/12/16 08:35:19;;;;;;;13.13;7.53;;;;;;;;;;4974104;28;20819;-72
2023/12/16 08:37:45;;;;;;;12.27;6.93;;;;;;;;;;4959416;28;20757;-71
2023/12/16 08:40:11;;;;;;;13.40;8.23;;;;;;;;;;4976330;28;20411;-71
2023/12/16 08:42:41;;;;;;;15.50;8.13;;;;;;;;;;4976301;28;20507;-71
2023/12/16 08:45:07;;;;;;;17.00;8.17;;;;;;;;;;4978005;28;20421;-72
2023/12/16 08:47:33;;;;;;;17.47;8.13;;;;;;;;;;4978093;28;20786;-71
2023/12/16 08:49:59;;;;;;;11.60;7.23;;;;;;;;;;4960042;28;20408;-71
2023/12/16 08:52:26;;;;;;;17.80;8.07;;;;;;;;;;4977686;28;20562;-71
2023/12/16 08:54:52;;;;;;;12.50;7.93;;;;;;;;;;4979294;28;20443;-73
2023/12/16 08:57:19;;;;;;;19.10;8.43;;;;;;;;;;4978030;28;20412;-72
2023/12/16 08:59:45;;;;;;;14.43;8.17;;;;;;;;;;4977381;28;20779;-71
2023/12/16 09:02:11;;;;;;;14.27;7.53;;;;;;;;;;4977238;28;20447;-72
2023/12/16 09:04:37;;;;;;;12.17;7.27;;;;;;;;;;4977551;28;20430;-73
2023/12/16 09:07:03;;;;;;;17.07;7.50;;;;;;;;;;4960028;28;20431;-72
2023/12/16 09:09:29;;;;;;;9.40;6.40;;;;;;;;;;4977323;28;20426;-72
2023/12/16 09:11:54;;;;;;;16.13;8.70;;;;;;;;;;4977334;28;20614;-73
2023/12/16 09:14:20;;;;;;;12.10;7.13;;;;;;;;;;4977255;28;20443;-72
2023/12/16 09:16:46;;;;;;;14.13;7.77;;;;;;;;;;4977247;28;20420;-73
2023/12/16 09:19:13;;;;;;;12.67;7.40;;;;;;;;;;4979921;28;20408;-73
2023/12/16 09:21:39;;;;;;;13.90;7.17;;;;;;;;;;4960474;28;20852;-71
2023/12/16 09:24:06;;;;;;;15.63;7.63;;;;;;;;;;4977553;28;20448;-70
2023/12/16 09:26:32;;;;;;;11.60;7.13;;;;;;;;;;4960126;28;20455;-72
2023/12/16 09:28:59;;;;;;;14.00;7.47;;;;;;;;;;4977335;28;20423;-71
2023/12/16 09:31:25;;;;;;;12.60;7.50;;;;;;;;;;4976644;28;20428;-71
2023/12/16 09:33:51;;;;;;;14.07;7.80;;;;;;;;;;4976838;28;20827;-70
2023/12/16 09:36:17;;;;;;;14.33;7.93;;;;;;;;;;4977473;28;20454;-72
2023/12/16 09:38:43;;;;;;;13.57;7.83;;;;;;;;;;4976710;28;20930;-72
2023/12/16 09:41:18;;;;;;;13.57;8.10;;;;;;;;;;4976533;28;20787;-71
2023/12/16 09:43:45;;;;;;;13.27;8.03;;;;;;;;;;4976919;28;20430;-71
2023/12/16 09:46:11;;;;;;;9.53;7.07;;;;;;;;;;4959571;28;20922;-72
2023/12/16 09:48:37;;;;;;;12.20;8.07;;;;;;;;;;4976545;28;20415;-72
2023/12/16 09:51:03;;;;;;;13.00;7.20;;;;;;;;;;4976424;28;20902;-72
2023/12/16 09:53:29;;;;;;;22.07;7.87;;;;;;;;;;4977506;28;20490;-74
2023/12/16 09:55:55;;;;;;;14.17;7.13;;;;;;;;;;4959991;28;20425;-71
2023/12/16 09:58:21;;;;;;;17.40;9.77;;;;;;;;;;4979762;28;20466;-72
2023/12/16 10:00:48;;;;;;;20.43;7.57;;;;;;;;;;4977861;28;20432;-72
2023/12/16 10:03:15;;;;;;;10.50;7.20;;;;;;;;;;4984033;28;20491;-72
2023/12/16 10:05:42;;;;;;;11.10;6.60;;;;;;;;;;4990526;28;20424;-72
2023/12/16 10:08:08;;;;;;;12.50;7.57;;;;;;;;;;4973019;28;20412;-72
2023/12/16 10:10:34;;;;;;;14.90;7.10;;;;;;;;;;4990571;28;20447;-72
2023/12/16 10:13:02;;;;;;;12.20;7.93;;;;;;;;;;4973203;28;20467;-72
2023/12/16 10:15:30;;;;;;;11.70;6.80;;;;;;;;;;4971072;28;21103;-71
2023/12/16 10:17:56;;;;;;;12.33;7.40;;;;;;;;;;4964442;28;20487;-71
2023/12/16 10:20:22;;;;;;;14.03;7.90;;;;;;;;;;4962845;28;20420;-72
2023/12/16 10:22:48;;;;;;;11.20;7.50;;;;;;;;;;4979743;28;20416;-71
2023/12/16 10:25:14;;;;;;;11.20;6.97;;;;;;;;;;4981156;28;20838;-70
2023/12/16 10:27:43;;;;;;;16.77;8.90;;;;;;;;;;4962056;28;20416;-71
2023/12/16 10:30:10;;;;;;;14.20;8.03;;;;;;;;;;4980130;28;20440;-73
2023/12/16 10:32:40;;;;;;;18.13;8.50;;;;;;;;;;4980654;28;20506;-71
2023/12/16 10:35:06;;;;;;;13.77;7.77;;;;;;;;;;4980020;28;20419;-72
2023/12/16 10:37:32;;;;;;;12.40;7.10;;;;;;;;;;4961401;28;20415;-72
2023/12/16 10:39:58;;;;;;;13.50;7.70;;;;;;;;;;4980193;28;20408;-71
2023/12/16 10:42:25;;;;;;;16.63;7.97;;;;;;;;;;4964662;28;20440;-73
2023/12/16 10:44:52;;;;;;;16.17;7.53;;;;;;;;;;4962015;28;20563;-72
2023/12/16 10:47:19;;;;;;;12.20;7.43;;;;;;;;;;4977464;28;20416;-73
2023/12/16 10:49:46;;;;;;;12.17;7.60;;;;;;;;;;4978181;28;20503;-71
2023/12/16 10:52:12;;;;;;;11.10;7.03;;;;;;;;;;4978663;28;20659;-73
2023/12/16 10:54:59;;;;;;;10.07;6.53;;;;;;;;;;4976420;28;20479;-72
2023/12/16 10:57:51;;;;;;;13.20;7.30;;;;;;;;;;4977275;28;20411;-71
2023/12/16 11:00:21;;;;;;;13.40;7.57;;;;;;;;;;4947288;28;20420;-71
2023/12/16 11:02:56;;;;;;;13.17;7.70;;;;;;;;;;4958800;28;20439;-73
2023/12/16 11:05:25;;;;;;;16.97;8.57;;;;;;;;;;4976367;28;20482;-74
2023/12/16 11:07:51;;;;;;;14.50;7.63;;;;;;;;;;4975480;28;20420;-71
2023/12/16 11:10:18;;;;;;;11.10;7.60;;;;;;;;;;4976010;28;20422;-71
2023/12/16 11:12:45;;;;;;;12.00;7.23;;;;;;;;;;4979248;28;20564;-72
2023/12/16 11:15:11;;;;;;;15.73;7.83;;;;;;;;;;4979628;28;20498;-70
2023/12/16 11:17:47;;;;;;;13.60;8.33;;;;;;;;;;4976167;28;20459;-72
2023/12/16 11:20:18;;;;;;;15.53;7.80;;;;;;;;;;4976021;28;20412;-72
2023/12/16 11:22:53;;;;;;;13.00;7.63;;;;;;;;;;4976323;28;20416;-72
2023/12/16 11:25:20;;;;;;;11.73;7.43;;;;;;;;;;4975667;28;20415;-72
2023/12/16 11:27:49;;;;;;;10.80;7.37;;;;;;;;;;4976124;28;20503;-71
2023/12/16 11:30:16;;;;;;;15.83;7.77;;;;;;;;;;4975904;28;20783;-72
2023/12/16 11:32:44;;;;;;;12.70;7.43;;;;;;;;;;4976165;28;20811;-72
2023/12/16 11:35:10;;;;;;;12.67;7.23;;;;;;;;;;4975834;28;20415;-72
2023/12/16 11:37:36;;;;;;;11.57;8.00;;;;;;;;;;4975673;28;20411;-74
2023/12/16 11:40:10;;;;;;;18.53;8.20;;;;;;;;;;4958036;28;20420;-73
2023/12/16 11:42:48;;;;;;;15.40;9.07;;;;;;;;;;4958075;28;20420;-71
2023/12/16 11:45:39;;;;;;;14.83;7.83;;;;;;;;;;4975610;28;20423;-71
2023/12/16 11:48:06;;;;;;;13.40;7.70;;;;;;;;;;4958651;28;20440;-72
2023/12/16 11:50:34;;;;;;;16.07;7.60;;;;;;;;;;4975369;28;20439;-71
2023/12/16 11:53:00;;;;;;;16.47;8.23;;;;;;;;;;4975581;28;20465;-71
2023/12/16 11:55:26;;;;;;;15.00;8.63;;;;;;;;;;4975549;28;20427;-73
2023/12/16 11:57:53;;;;;;;15.67;8.30;;;;;;;;;;4974946;28;20535;-70
2023/12/16 12:00:20;;;;;;;20.90;9.40;;;;;;;;;;4975241;28;20903;-72
2023/12/16 12:02:48;;;;;;;14.70;8.73;;;;;;;;;;4975225;28;20426;-71
2023/12/16 12:05:14;;;;;;;14.50;8.20;;;;;;;;;;4975346;28;20416;-72
2023/12/16 12:07:40;;;;;;;19.17;8.67;;;;;;;;;;4975232;28;20443;-71
2023/12/16 12:10:07;;;;;;;15.43;8.30;;;;;;;;;;4975051;28;20412;-71
2023/12/16 12:12:33;;;;;;;14.10;7.90;;;;;;;;;;4975512;28;20467;-72
2023/12/16 12:14:59;;;;;;;12.23;7.10;;;;;;;;;;5003732;23;20397;-74
2023/12/16 12:17:26;;;;;;;13.13;8.90;;;;;;;;;;4992430;28;20406;-74
2023/12/16 12:19:52;;;;;;;16.03;8.33;;;;;;;;;;4974708;28;20423;-75
2023/12/16 12:22:20;;;;;;;18.17;8.57;;;;;;;;;;4992581;28;20510;-75
2023/12/16 12:24:46;;;;;;;16.90;8.70;;;;;;;;;;4992518;28;20409;-75
2023/12/16 12:27:12;;;;;;;18.20;8.60;;;;;;;;;;4974941;28;20649;-74
2023/12/16 12:29:53;;;;;;;22.93;9.17;;;;;;;;;;4992648;28;20447;-74
2023/12/16 12:32:19;;;;;;;14.50;7.53;;;;;;;;;;4975088;28;20605;-76
2023/12/16 12:34:45;;;;;;;16.33;8.20;;;;;;;;;;4992232;28;20485;-74
2023/12/16 12:37:12;;;;;;;19.13;7.60;;;;;;;;;;4992451;28;20442;-75
2023/12/16 12:39:37;;;;;;;14.73;8.43;;;;;;;;;;4991980;28;20423;-75
2023/12/16 12:42:04;;;;;;;16.63;8.60;;;;;;;;;;4991964;28;20917;-75
2023/12/16 12:44:31;;;;;;;16.83;8.87;;;;;;;;;;4992657;28;20407;-75
2023/12/16 12:46:57;;;;;;;13.80;8.37;;;;;;;;;;4974627;28;20497;-73
2023/12/16 12:49:32;;;;;;;20.13;8.63;;;;;;;;;;4993062;28;20411;-73
2023/12/16 12:51:58;;;;;;;31.73;9.17;;;;;;;;;;4992481;28;20760;-74
2023/12/16 12:54:25;;;;;;;16.63;7.87;;;;;;;;;;4992219;28;20418;-75
2023/12/16 12:56:51;;;;;;;17.90;8.70;;;;;;;;;;4991776;28;20990;-74
2023/12/16 12:59:17;;;;;;;16.03;9.00;;;;;;;;;;4991844;28;20497;-73
2023/12/16 13:01:46;;;;;;;17.30;8.63;;;;;;;;;;4992001;28;20421;-72
2023/12/16 13:04:12;;;;;;;22.87;7.90;;;;;;;;;;4992205;28;20459;-72
2023/12/16 13:06:39;;;;;;;19.07;7.30;;;;;;;;;;4991921;28;20515;-72
2023/12/16 13:09:04;;;;;;;14.97;7.27;;;;;;;;;;4992081;28;20438;-72
2023/12/16 13:11:31;;;;;;;13.03;7.50;;;;;;;;;;4991867;28;20894;-72
2023/12/16 13:13:59;;;;;;;18.10;7.73;;;;;;;;;;4991918;28;20459;-73
2023/12/16 13:16:25;;;;;;;13.37;6.83;;;;;;;;;;4991521;28;20455;-73
2023/12/16 13:18:52;;;;;;;15.13;6.73;;;;;;;;;;4991706;28;20473;-73
2023/12/16 13:21:19;;;;;;;16.63;5.70;;;;;;;;;;4991763;28;20441;-73
2023/12/16 13:23:45;;;;;;;11.17;5.60;;;;;;;;;;4991939;28;20418;-72
2023/12/16 13:26:12;;;;;;;15.27;6.00;;;;;;;;;;4992102;28;20981;-72
2023/12/16 13:28:40;;;;;;;14.83;5.77;;;;;;;;;;4991699;28;20575;-73
2023/12/16 13:31:06;;;;;;;13.70;4.90;;;;;;;;;;4993782;28;20426;-72
2023/12/16 13:33:32;;;;;;;16.77;5.30;;;;;;;;;;4995327;28;20766;-73
2023/12/16 13:35:58;;;;;;;12.20;5.37;;;;;;;;;;4996879;28;20767;-72
2023/12/16 13:38:24;;;;;;;12.27;5.20;;;;;;;;;;5005484;28;20414;-72
2023/12/16 13:40:51;;;;;;;17.27;5.90;;;;;;;;;;5000163;28;20413;-72
2023/12/16 13:43:17;;;;;;;18.07;4.97;;;;;;;;;;4997523;28;20513;-72
2023/12/16 13:45:43;;;;;;;12.53;4.90;;;;;;;;;;5000492;28;20922;-72
2023/12/16 13:48:09;;;;;;;12.93;6.23;;;;;;;;;;4996943;28;20415;-72
2023/12/16 13:50:35;;;;;;;15.53;5.63;;;;;;;;;;4995164;28;20411;-72
2023/12/16 13:53:01;;;;;;;15.77;5.73;;;;;;;;;;4994689;28;20462;-72
2023/12/16 13:55:27;;;;;;;10.50;5.20;;;;;;;;;;4995011;28;20434;-72
2023/12/16 13:57:53;;;;;;;15.93;4.97;;;;;;;;;;4994706;28;20419;-72
2023/12/16 14:00:19;;;;;;;12.23;5.33;;;;;;;;;;4977302;28;20426;-72
2023/12/16 14:02:45;;;;;;;10.40;4.90;;;;;;;;;;4994496;28;20498;-72
2023/12/16 14:05:11;;;;;;;13.93;6.20;;;;;;;;;;4995168;28;20777;-72
2023/12/16 14:07:37;;;;;;;11.37;5.90;;;;;;;;;;4994780;28;20415;-72
2023/12/16 14:10:03;;;;;;;12.57;5.23;;;;;;;;;;4994231;28;20411;-72
2023/12/16 14:12:29;;;;;;;14.60;5.53;;;;;;;;;;4977044;28;20553;-72
2023/12/16 14:14:55;;;;;;;12.10;5.60;;;;;;;;;;4994312;28;20481;-72
2023/12/16 14:17:21;;;;;;;11.00;4.73;;;;;;;;;;4994620;28;20492;-72
2023/12/16 14:19:47;;;;;;;11.10;5.40;;;;;;;;;;4994390;28;20778;-73
2023/12/16 14:22:13;;;;;;;11.43;4.13;;;;;;;;;;4977050;28;20510;-72
2023/12/16 14:24:39;;;;;;;12.70;4.77;;;;;;;;;;4994509;28;20473;-72
2023/12/16 14:27:05;;;;;;;14.60;5.30;;;;;;;;;;4976794;28;20419;-72
2023/12/16 14:29:31;;;;;;;11.10;4.83;;;;;;;;;;4976635;28;20454;-72
2023/12/16 14:31:57;;;;;;;9.73;4.80;;;;;;;;;;4993892;28;20466;-72
2023/12/16 14:34:23;;;;;;;14.80;6.63;;;;;;;;;;4994353;28;20461;-72
2023/12/16 14:36:49;;;;;;;11.93;5.60;;;;;;;;;;4994496;28;20802;-72
2023/12/16 14:39:15;;;;;;;13.50;5.60;;;;;;;;;;4994110;28;20484;-72
2023/12/16 14:41:41;;;;;;;13.00;6.20;;;;;;;;;;4975395;28;20427;-72
2023/12/16 14:44:07;;;;;;;14.53;5.27;;;;;;;;;;4994174;28;20890;-73
2023/12/16 14:46:34;;;;;;;20.33;4.60;;;;;;;;;;4994074;28;20430;-72
2023/12/16 14:49:00;;;;;;;11.60;5.63;;;;;;;;;;4994123;28;20446;-72
2023/12/16 14:51:26;;;;;;;14.13;5.67;;;;;;;;;;4976539;28;20521;-72
2023/12/16 14:53:52;;;;;;;12.80;5.93;;;;;;;;;;4993937;28;20819;-72
2023/12/16 14:56:21;;;;;;;8.87;5.30;;;;;;;;;;4993674;28;20926;-72
2023/12/16 14:58:48;;;;;;;11.90;6.47;;;;;;;;;;4993742;28;20519;-72
2023/12/16 15:01:19;;;;;;;13.97;6.53;;;;;;;;;;4993486;28;20435;-72
2023/12/16 15:03:45;;;;;;;18.47;6.37;;;;;;;;;;4993723;28;20489;-72
2023/12/16 15:06:11;;;;;;;15.13;5.80;;;;;;;;;;4976057;28;20966;-72
2023/12/16 15:08:37;;;;;;;11.20;5.43;;;;;;;;;;4993534;28;20412;-71
2023/12/16 15:11:04;;;;;;;15.50;6.30;;;;;;;;;;4993146;28;20419;-72
2023/12/16 15:13:33;;;;;;;16.23;7.13;;;;;;;;;;4975981;28;20546;-72
2023/12/16 15:15:59;;;;;;;15.00;7.13;;;;;;;;;;4993191;28;20455;-72
2023/12/16 15:18:25;;;;;;;31.07;7.43;;;;;;;;;;4993464;28;20838;-72
2023/12/16 15:20:52;;;;;;;20.20;7.37;;;;;;;;;;4993188;28;20790;-72
2023/12/16 15:23:18;;;;;;;14.43;5.83;;;;;;;;;;4993281;28;20430;-72
2023/12/16 15:25:44;;;;;;;13.40;5.30;;;;;;;;;;4993282;28;20430;-71
2023/12/16 15:28:10;;;;;;;13.20;5.60;;;;;;;;;;4993869;28;20925;-71
2023/12/16 15:30:36;;;;;;;20.60;6.33;;;;;;;;;;4976474;28;20449;-72
2023/12/16 15:33:02;;;;;;;12.57;6.30;;;;;;;;;;4992928;28;20462;-72
2023/12/16 15:35:28;;;;;;;14.63;6.10;;;;;;;;;;4992892;28;20427;-72
2023/12/16 15:37:54;;;;;;;14.10;4.70;;;;;;;;;;4993287;28;20430;-72
2023/12/16 15:40:20;;;;;;;11.20;4.43;;;;;;;;;;4992837;28;20419;-71
2023/12/16 15:42:46;;;;;;;12.13;4.50;;;;;;;;;;4993057;28;20451;-71
2023/12/16 15:45:12;;;;;;;10.40;5.57;;;;;;;;;;4992894;28;20529;-72
2023/12/16 15:47:38;;;;;;;14.33;5.43;;;;;;;;;;4992876;28;20415;-71
2023/12/16 15:50:04;;;;;;;9.03;4.20;;;;;;;;;;4975233;28;20868;-71
2023/12/16 15:52:32;;;;;;;12.87;5.10;;;;;;;;;;4992250;28;20827;-71
2023/12/16 15:54:58;;;;;;;16.73;5.10;;;;;;;;;;4992700;28;20461;-71
2023/12/16 15:57:24;;;;;;;13.50;4.67;;;;;;;;;;4992665;28;20403;-71
2023/12/16 15:59:50;;;;;;;15.70;5.67;;;;;;;;;;4992623;28;20417;-71
2023/12/16 16:02:16;;;;;;;14.73;6.97;;;;;;;;;;4992549;28;20886;-73
2023/12/16 16:04:41;;;;;;;18.90;6.40;;;;;;;;;;4990241;28;20450;-71
2023/12/16 16:07:07;;;;;;;17.77;6.17;;;;;;;;;;4992560;28;20878;-72
2023/12/16 16:09:33;;;;;;;17.70;7.17;;;;;;;;;;4992210;28;20902;-72
2023/12/16 16:12:01;;;;;;;18.93;6.40;;;;;;;;;;4991993;28;20432;-72
2023/12/16 16:14:27;;;;;;;11.60;5.57;;;;;;;;;;4974897;28;20743;-71
2023/12/16 16:16:53;;;;;;;17.93;5.90;;;;;;;;;;4992063;28;20454;-72
2023/12/16 16:19:18;;;;;;;20.40;7.37;;;;;;;;;;4992348;28;20813;-72
2023/12/16 16:21:44;;;;;;;25.27;9.40;;;;;;;;;;4991718;28;20434;-73
2023/12/16 16:24:10;;;;;;;21.70;8.70;;;;;;;;;;4974792;28;20431;-71
2023/12/16 16:26:36;;;;;;;18.27;8.23;;;;;;;;;;4992028;28;20439;-70
2023/12/16 16:29:03;;;;;;;17.07;8.50;;;;;;;;;;4974836;28;20590;-71
2023/12/16 16:31:29;;;;;;;17.40;8.30;;;;;;;;;;4992109;28;20798;-70
2023/12/16 16:33:58;;;;;;;17.57;7.10;;;;;;;;;;4992335;28;20648;-76
2023/12/16 16:36:24;;;;;;;24.20;9.27;;;;;;;;;;4991673;28;20747;-74
2023/12/16 16:38:51;;;;;;;27.80;9.67;;;;;;;;;;4992024;28;20411;-74
2023/12/16 16:41:17;;;;;;;23.50;10.53;;;;;;;;;;4991895;28;20836;-74
2023/12/16 16:43:43;;;;;;;24.97;12.17;;;;;;;;;;4974848;28;20507;-74
2023/12/16 16:46:09;;;;;;;27.00;11.53;;;;;;;;;;4992048;28;20492;-74
2023/12/16 16:48:35;;;;;;;28.80;11.70;;;;;;;;;;4974718;28;20483;-75
2023/12/16 16:51:02;;;;;;;15.87;10.23;;;;;;;;;;4991880;28;20805;-75
2023/12/16 16:53:28;;;;;;;25.00;10.00;;;;;;;;;;4991851;28;20473;-73
2023/12/16 16:55:54;;;;;;;30.70;11.37;;;;;;;;;;4991995;28;20940;-74
2023/12/16 16:58:20;;;;;;;28.23;12.60;;;;;;;;;;4992011;28;20490;-74
2023/12/16 17:00:46;;;;;;;24.87;11.50;;;;;;;;;;4974368;28;20498;-76
2023/12/16 17:03:12;;;;;;;29.23;12.73;;;;;;;;;;4992364;28;20510;-75
2023/12/16 17:05:38;;;;;;;35.10;14.00;;;;;;;;;;4993680;28;20442;-75
2023/12/16 17:08:04;;;;;;;30.60;14.00;;;;;;;;;;4978127;28;20421;-75
2023/12/16 17:10:30;;;;;;;29.93;14.60;;;;;;;;;;4995601;28;20418;-75
2023/12/16 17:12:56;;;;;;;25.73;12.80;;;;;;;;;;4978099;28;20458;-75
2023/12/16 17:15:22;;;;;;;27.30;14.13;;;;;;;;;;4995639;28;20828;-74
2023/12/16 17:17:48;;;;;;;32.40;14.17;;;;;;;;;;4978177;28;20415;-75
2023/12/16 17:20:14;;;;;;;25.17;11.43;;;;;;;;;;4977312;28;20914;-75
2023/12/16 17:22:40;;;;;;;28.20;13.67;;;;;;;;;;4995591;28;20421;-74
2023/12/16 17:25:07;;;;;;;30.47;12.07;;;;;;;;;;4995558;28;20939;-74
2023/12/16 17:27:33;;;;;;;32.67;12.73;;;;;;;;;;4978065;28;20897;-74
2023/12/16 17:29:59;;;;;;;31.53;14.30;;;;;;;;;;4995407;28;20495;-74
2023/12/16 17:32:26;;;;;;;20.73;11.97;;;;;;;;;;4995358;28;20557;-74
2023/12/16 17:34:52;;;;;;;29.20;13.20;;;;;;;;;;4995448;28;20415;-74
2023/12/16 17:37:18;;;;;;;28.17;14.40;;;;;;;;;;4977870;28;20399;-74
2023/12/16 17:39:44;;;;;;;47.27;18.17;;;;;;;;;;4995316;28;20457;-74
2023/12/16 17:42:10;;;;;;;40.57;16.87;;;;;;;;;;4977669;28;20853;-73
2023/12/16 17:44:36;;;;;;;31.33;15.03;;;;;;;;;;4977776;28;20425;-74
2023/12/16 17:47:02;;;;;;;31.97;15.37;;;;;;;;;;4995250;28;20458;-74
2023/12/16 17:49:28;;;;;;;34.30;16.30;;;;;;;;;;4995292;28;20440;-74
2023/12/16 17:51:55;;;;;;;31.57;13.30;;;;;;;;;;4995232;28;20403;-74
2023/12/16 17:54:21;;;;;;;36.37;15.33;;;;;;;;;;4977568;28;20553;-74
2023/12/16 17:56:48;;;;;;;46.03;17.03;;;;;;;;;;4995346;28;20451;-75
2023/12/16 17:59:14;;;;;;;44.87;17.30;;;;;;;;;;4995215;28;20429;-74
2023/12/16 18:01:41;;;;;;;35.90;16.63;;;;;;;;;;4995190;28;20486;-74
2023/12/16 18:04:08;;;;;;;31.33;14.20;;;;;;;;;;4995719;28;20411;-74
2023/12/16 18:06:34;;;;;;;36.93;14.60;;;;;;;;;;4977869;28;20438;-74
2023/12/16 18:09:01;;;;;;;35.20;13.23;;;;;;;;;;4995058;28;20477;-74
2023/12/16 18:11:27;;;;;;;40.67;16.17;;;;;;;;;;4994490;28;20506;-74
2023/12/16 18:13:53;;;;;;;44.93;18.80;;;;;;;;;;4994819;28;20573;-74
2023/12/16 18:16:19;;;;;;;42.23;20.70;;;;;;;;;;4994787;28;20455;-75
2023/12/16 18:18:44;;;;;;;35.23;16.77;;;;;;;;;;4994905;28;20411;-75
2023/12/16 18:21:11;;;;;;;38.67;15.70;;;;;;;;;;4994717;28;20494;-75
2023/12/16 18:23:37;;;;;;;42.80;17.73;;;;;;;;;;4995020;28;20466;-75
2023/12/16 18:26:07;;;;;;;34.43;16.77;;;;;;;;;;4994535;28;20982;-75
2023/12/16 18:28:34;;;;;;;39.83;16.47;;;;;;;;;;4977577;28;20782;-74
2023/12/16 18:31:00;;;;;;;40.03;17.10;;;;;;;;;;4994552;28;20423;-75
2023/12/16 18:33:26;;;;;;;46.77;18.20;;;;;;;;;;4994673;28;20463;-75
2023/12/16 18:35:52;;;;;;;61.77;25.50;;;;;;;;;;4994802;28;20431;-74
2023/12/16 18:38:18;;;;;;;68.50;21.50;;;;;;;;;;4994639;28;20419;-74
2023/12/16 18:40:44;;;;;;;44.87;19.77;;;;;;;;;;4994825;28;20418;-74
2023/12/16 18:43:10;;;;;;;67.67;27.43;;;;;;;;;;4994564;28;20772;-74
2023/12/16 18:45:37;;;;;;;39.17;18.37;;;;;;;;;;4994395;28;20445;-77
2023/12/16 18:48:03;;;;;;;44.03;20.33;;;;;;;;;;4994859;28;20469;-75
2023/12/16 18:50:29;;;;;;;39.87;18.37;;;;;;;;;;4994334;28;20415;-75
2023/12/16 18:52:55;;;;;;;57.00;22.80;;;;;;;;;;4994227;28;20831;-75
2023/12/16 18:55:22;;;;;;;44.33;18.10;;;;;;;;;;4994132;28;20850;-75
2023/12/16 18:57:48;;;;;;;47.00;18.23;;;;;;;;;;4993755;28;20958;-75
2023/12/16 19:00:15;;;;;;;42.97;18.63;;;;;;;;;;4993485;28;20411;-75
2023/12/16 19:02:41;;;;;;;33.23;16.13;;;;;;;;;;4993374;28;20437;-75
2023/12/16 19:05:07;;;;;;;44.30;21.17;;;;;;;;;;4975843;28;20477;-74
2023/12/16 19:07:33;;;;;;;36.23;17.83;;;;;;;;;;4975985;28;20415;-75
2023/12/16 19:10:04;;;;;;;41.57;18.63;;;;;;;;;;4975624;28;20435;-75
2023/12/16 19:12:31;;;;;;;41.07;20.17;;;;;;;;;;4993315;28;20462;-75
2023/12/16 19:14:57;;;;;;;52.90;21.10;;;;;;;;;;4993288;28;20411;-75
2023/12/16 19:17:22;;;;;;;57.37;21.83;;;;;;;;;;4993972;28;20905;-75
2023/12/16 19:19:49;;;;;;;36.30;18.80;;;;;;;;;;4975789;28;20407;-75
2023/12/16 19:22:15;;;;;;;42.10;19.63;;;;;;;;;;4993754;28;20409;-75
2023/12/16 19:24:41;;;;;;;41.50;18.77;;;;;;;;;;4994209;28;20490;-75
2023/12/16 19:27:08;;;;;;;38.83;19.80;;;;;;;;;;4993356;28;20566;-75
2023/12/16 19:29:34;;;;;;;41.73;18.10;;;;;;;;;;4993271;28;20407;-75
2023/12/16 19:32:00;;;;;;;37.00;17.47;;;;;;;;;;4975884;28;20485;-75
2023/12/16 19:34:26;;;;;;;42.70;20.37;;;;;;;;;;4993376;28;20579;-76
2023/12/16 19:36:52;;;;;;;37.80;19.13;;;;;;;;;;4993768;28;20431;-76
2023/12/16 19:39:21;;;;;;;38.73;17.30;;;;;;;;;;4993280;28;20410;-76
2023/12/16 19:41:50;;;;;;;37.73;19.03;;;;;;;;;;4993056;28;20399;-76
2023/12/16 19:44:16;;;;;;;52.30;21.13;;;;;;;;;;4993567;28;20427;-76
2023/12/16 19:46:42;;;;;;;51.23;21.00;;;;;;;;;;4993356;28;20546;-76
2023/12/16 19:49:08;;;;;;;40.23;19.53;;;;;;;;;;4993038;28;20418;-76
2023/12/16 19:51:34;;;;;;;36.17;18.17;;;;;;;;;;4993049;28;20924;-76
2023/12/16 19:54:00;;;;;;;46.87;20.30;;;;;;;;;;4993023;28;20466;-76
2023/12/16 19:56:26;;;;;;;46.77;20.17;;;;;;;;;;4992712;28;20442;-76
2023/12/16 19:58:52;;;;;;;44.10;20.97;;;;;;;;;;4992961;28;20417;-76
2023/12/16 20:01:18;;;;;;;42.43;21.23;;;;;;;;;;4993041;28;20558;-76
2023/12/16 20:03:44;;;;;;;43.77;19.20;;;;;;;;;;4993079;28;20502;-76
2023/12/16 20:06:10;;;;;;;48.40;22.10;;;;;;;;;;4992770;28;20434;-76
2023/12/16 20:08:35;;;;;;;52.97;23.80;;;;;;;;;;4992930;28;20432;-76
2023/12/16 20:11:02;;;;;;;38.03;17.93;;;;;;;;;;4975343;28;20423;-76
2023/12/16 20:13:28;;;;;;;52.07;22.30;;;;;;;;;;4993505;28;20459;-76
2023/12/16 20:15:54;;;;;;;47.43;22.33;;;;;;;;;;4993413;28;20454;-76
2023/12/16 20:18:22;;;;;;;59.53;24.17;;;;;;;;;;4976420;28;20798;-76
2023/12/16 20:20:48;;;;;;;44.90;21.20;;;;;;;;;;4993421;28;20410;-76
2023/12/16 20:23:16;;;;;;;63.33;25.47;;;;;;;;;;4976053;28;20430;-76
2023/12/16 20:25:42;;;;;;;52.23;22.43;;;;;;;;;;4993300;28;20431;-76